Bunkley, Mississippi
Current Conditions -  °F | °C
As of 2:53 AM on Saturday 20 Dec 2014 (Local Time) from KMCB Reporting Station
Overcast Overcast  
Wind Chill: 42°   Ceiling: 700
Heat Index: 46°   Visibility: 9mi
Dew Point: 43°   Wind: 7mph
Humidity: 89%   Direction: 20°NNE
Pressure: 30.11"   Gusts: NA
Location:  31.4031°N, 90.8369°W
Report Text: KMCB 200853Z AUTO 02006KT 9SM BKN007 OVC015 08/06 A3011 RMK AO2 CIG 005V009 SLP197 60001 T00780061 50002
Loading
Personal Weather Stations






























Interactive Weather Map New forecast layout! Learn more

10-Day Weather Forecast

Advertisements
Track Severe Weather on mobile